createdAt,value
2023-02-26T00:00:35.139Z,18.92
2023-02-26T00:03:26.508Z,14.52
2023-02-26T00:06:02.033Z,14.35
2023-02-26T00:08:33.467Z,17.73
2023-02-26T00:11:05.134Z,12.23
2023-02-26T00:13:37.113Z,17.25
2023-02-26T00:16:24.312Z,19.23
2023-02-26T00:18:55.759Z,17.45
2023-02-26T00:21:29.004Z,18.90
2023-02-26T00:24:00.662Z,18.33
2023-02-26T00:26:33.362Z,19.30
2023-02-26T00:29:04.731Z,17.05
2023-02-26T00:31:39.184Z,18.20
2023-02-26T00:34:14.627Z,19.70
2023-02-26T00:36:53.726Z,12.40
2023-02-26T00:39:40.060Z,20.17
2023-02-26T00:42:12.279Z,18.58
2023-02-26T00:44:44.171Z,20.77
2023-02-26T00:47:25.846Z,18.00
2023-02-26T00:50:08.574Z,15.77
2023-02-26T00:52:49.798Z,16.75
2023-02-26T00:55:22.295Z,17.40
2023-02-26T00:57:53.585Z,14.88
2023-02-26T01:00:25.694Z,15.07
2023-02-26T01:03:00.507Z,15.15
2023-02-26T01:05:32.305Z,22.00
2023-02-26T01:08:09.113Z,18.08
2023-02-26T01:10:40.845Z,16.40
2023-02-26T01:13:12.723Z,15.85
2023-02-26T01:15:50.352Z,17.98
2023-02-26T01:18:29.968Z,24.42
2023-02-26T01:21:05.759Z,24.90
2023-02-26T01:23:42.008Z,28.25
2023-02-26T01:26:18.448Z,23.70
2023-02-26T01:28:50.156Z,24.27
2023-02-26T01:31:36.616Z,23.90
2023-02-26T01:34:18.567Z,22.45
2023-02-26T01:36:56.564Z,23.40
2023-02-26T01:39:33.722Z,27.58
2023-02-26T01:42:12.318Z,27.08
2023-02-26T01:44:51.501Z,17.45
2023-02-26T01:47:26.630Z,18.20
2023-02-26T01:50:01.828Z,11.68
2023-02-26T01:53:11.514Z,10.13
2023-02-26T01:55:47.471Z,9.73
2023-02-26T01:58:18.251Z,9.80
2023-02-26T02:00:49.387Z,11.00
2023-02-26T02:05:58.091Z,9.00
2023-02-26T02:08:29.079Z,9.43
2023-02-26T02:11:00.278Z,10.35
2023-02-26T02:16:20.938Z,10.13
2023-02-26T02:19:03.832Z,9.75
2023-02-26T02:22:11.993Z,11.75
2023-02-26T02:24:55.978Z,12.52
2023-02-26T02:27:33.466Z,10.50
2023-02-26T02:30:17.670Z,11.05
2023-02-26T02:32:54.891Z,6.93
2023-02-26T02:35:31.009Z,8.05
2023-02-26T02:38:08.018Z,9.23
2023-02-26T02:40:42.128Z,7.55
2023-02-26T02:43:17.153Z,8.98
2023-02-26T02:45:53.098Z,9.45
2023-02-26T02:48:31.293Z,8.77
2023-02-26T02:51:06.099Z,12.02
2023-02-26T02:53:42.490Z,10.27
2023-02-26T02:56:18.648Z,9.95
2023-02-26T02:58:54.061Z,9.68
2023-02-26T03:01:28.857Z,8.45
2023-02-26T03:04:09.356Z,7.68
2023-02-26T03:09:13.713Z,6.60
2023-02-26T03:11:45.570Z,5.45
2023-02-26T03:14:18.586Z,3.35
2023-02-26T03:17:12.925Z,9.00
2023-02-26T03:20:01.617Z,4.20
2023-02-26T03:22:38.020Z,6.45
2023-02-26T03:25:18.003Z,7.45
2023-02-26T03:27:53.940Z,5.25
2023-02-26T03:30:30.428Z,6.80
2023-02-26T03:33:07.215Z,4.90
2023-02-26T03:35:48.183Z,5.15
2023-02-26T03:38:25.111Z,7.05
2023-02-26T03:41:02.174Z,5.32
2023-02-26T03:43:39.196Z,4.85
2023-02-26T03:46:17.209Z,6.93
2023-02-26T03:48:52.475Z,7.53
2023-02-26T03:51:29.879Z,5.05
2023-02-26T03:54:23.942Z,6.40
2023-02-26T03:57:07.568Z,11.40
2023-02-26T04:00:13.109Z,9.38
2023-02-26T04:02:52.956Z,8.50
2023-02-26T04:05:28.237Z,11.30
2023-02-26T04:08:02.569Z,11.68
2023-02-26T04:10:39.543Z,9.18
2023-02-26T04:13:10.914Z,11.60
2023-02-26T04:15:42.137Z,7.25
2023-02-26T04:18:13.510Z,10.43
2023-02-26T04:20:44.395Z,9.15
2023-02-26T04:23:19.851Z,10.32
2023-02-26T04:25:50.727Z,7.38
2023-02-26T04:28:22.447Z,12.50
2023-02-26T04:33:24.738Z,10.10
2023-02-26T04:35:55.726Z,6.90
2023-02-26T04:38:30.180Z,10.18
2023-02-26T04:41:01.585Z,10.98
2023-02-26T04:43:33.249Z,9.48
2023-02-26T04:46:26.765Z,10.15
2023-02-26T04:48:58.693Z,11.85
2023-02-26T04:51:29.926Z,9.50
2023-02-26T04:54:03.857Z,10.77
2023-02-26T04:56:35.755Z,9.38
2023-02-26T04:59:08.326Z,9.48
2023-02-26T05:01:40.069Z,11.23
2023-02-26T05:04:12.870Z,11.60
2023-02-26T05:06:45.645Z,8.07
2023-02-26T05:09:20.807Z,10.05
2023-02-26T05:11:51.935Z,8.85
2023-02-26T05:14:23.312Z,10.57
2023-02-26T05:16:54.225Z,8.45
2023-02-26T05:19:25.512Z,8.70
2023-02-26T05:21:56.401Z,7.28
2023-02-26T05:24:30.532Z,9.00
2023-02-26T05:27:01.299Z,9.48
2023-02-26T05:29:34.129Z,8.30
2023-02-26T05:32:06.631Z,9.88
2023-02-26T05:34:37.823Z,9.55
2023-02-26T05:37:08.650Z,15.93
2023-02-26T05:39:43.142Z,15.27
2023-02-26T05:42:14.231Z,10.15
2023-02-26T05:44:45.345Z,10.52
2023-02-26T05:49:46.873Z,17.63
2023-02-26T05:54:51.418Z,9.73
2023-02-26T05:57:22.128Z,19.25
2023-02-26T05:59:53.631Z,23.67
2023-02-26T06:02:24.441Z,26.80
2023-02-26T06:04:55.958Z,24.73
2023-02-26T06:07:26.929Z,19.33
2023-02-26T06:10:00.628Z,18.33
2023-02-26T06:12:31.613Z,14.85
2023-02-26T06:15:02.731Z,21.23
2023-02-26T06:17:34.002Z,14.65
2023-02-26T06:20:05.895Z,14.07
2023-02-26T06:22:36.619Z,12.63
2023-02-26T06:25:11.267Z,16.40
2023-02-26T06:27:42.207Z,21.42
2023-02-26T06:30:15.306Z,24.63
2023-02-26T06:32:46.159Z,29.27
2023-02-26T06:35:17.312Z,33.00
2023-02-26T06:40:22.103Z,55.42
2023-02-26T06:42:52.901Z,43.55
2023-02-26T06:45:25.350Z,47.95
2023-02-26T06:47:56.245Z,47.42
2023-02-26T06:50:27.411Z,42.22
2023-02-26T06:55:33.853Z,35.20
2023-02-26T06:58:04.797Z,23.52
2023-02-26T07:00:37.289Z,26.63
2023-02-26T07:03:08.242Z,21.73
2023-02-26T07:05:39.312Z,20.58
2023-02-26T07:10:46.463Z,48.40
2023-02-26T07:13:17.491Z,42.58
2023-02-26T07:15:48.606Z,21.20
2023-02-26T07:20:52.837Z,25.70
2023-02-26T07:23:23.771Z,24.77
2023-02-26T07:25:58.106Z,49.13
2023-02-26T07:28:29.113Z,30.95
2023-02-26T07:31:01.174Z,33.78
2023-02-26T07:33:32.153Z,39.97
2023-02-26T07:36:03.271Z,35.90
2023-02-26T07:41:08.398Z,11.93
2023-02-26T07:43:39.252Z,18.25
2023-02-26T07:46:10.420Z,25.58
2023-02-26T07:48:41.970Z,16.35
2023-02-26T07:51:13.138Z,22.65
2023-02-26T07:56:17.517Z,22.02
2023-02-26T07:58:48.421Z,19.50
2023-02-26T08:01:20.460Z,19.33
2023-02-26T08:03:51.403Z,22.25
2023-02-26T08:06:22.568Z,22.20
2023-02-26T08:13:59.274Z,19.25
2023-02-26T08:16:30.521Z,22.02
2023-02-26T08:19:01.351Z,34.70
2023-02-26T08:21:32.908Z,29.38
2023-02-26T08:24:03.814Z,27.27
2023-02-26T08:26:39.830Z,25.63
2023-02-26T08:29:11.038Z,35.88
2023-02-26T08:31:42.888Z,43.08
2023-02-26T08:34:13.834Z,112.55
2023-02-26T08:36:45.031Z,44.83
2023-02-26T08:41:49.280Z,29.88
2023-02-26T08:44:20.174Z,58.45
2023-02-26T08:46:51.329Z,87.78
2023-02-26T08:49:22.801Z,47.80
2023-02-26T08:51:54.778Z,86.10
2023-02-26T08:54:25.708Z,239.93
2023-02-26T08:56:59.437Z,60.17
2023-02-26T08:59:30.251Z,105.05
2023-02-26T09:02:01.887Z,74.82
2023-02-26T09:04:32.937Z,41.55
2023-02-26T09:07:04.085Z,38.85
2023-02-26T09:12:09.565Z,308.65
2023-02-26T09:14:41.036Z,56.40
2023-02-26T09:17:12.262Z,49.03
2023-02-26T09:22:14.707Z,48.53
2023-02-26T09:24:45.667Z,23.02
2023-02-26T09:27:19.700Z,39.20
2023-02-26T09:29:51.387Z,47.42
2023-02-26T09:32:22.890Z,45.10
2023-02-26T09:34:55.444Z,22.92
2023-02-26T09:37:26.568Z,31.20
2023-02-26T09:42:49.646Z,15.88
2023-02-26T09:45:28.737Z,65.97
2023-02-26T09:48:01.656Z,19.65
2023-02-26T09:50:42.678Z,12.93
2023-02-26T09:53:19.908Z,17.50
2023-02-26T09:55:52.392Z,20.90
2023-02-26T09:58:32.599Z,21.45
2023-02-26T10:01:10.414Z,26.75
2023-02-26T10:03:57.112Z,20.02
2023-02-26T10:06:31.487Z,21.15
2023-02-26T10:09:33.804Z,25.65
2023-02-26T10:12:09.409Z,42.50
2023-02-26T10:14:47.689Z,43.35
2023-02-26T10:17:25.652Z,88.40
2023-02-26T10:20:01.190Z,34.70
2023-02-26T10:22:36.607Z,129.75
2023-02-26T10:25:14.387Z,26.98
2023-02-26T10:27:54.587Z,60.88
2023-02-26T10:30:35.347Z,49.70
2023-02-26T10:33:14.938Z,27.35
2023-02-26T10:35:53.222Z,50.07
2023-02-26T10:38:28.098Z,99.10
2023-02-26T10:41:04.129Z,85.72
2023-02-26T10:43:42.134Z,61.63
2023-02-26T10:46:24.993Z,54.22
2023-02-26T10:49:26.846Z,44.67
2023-02-26T10:51:59.354Z,57.92
2023-02-26T10:54:34.373Z,88.50
2023-02-26T10:57:05.502Z,66.93
2023-02-26T11:02:30.527Z,68.07
2023-02-26T11:05:07.471Z,91.07
2023-02-26T11:07:40.921Z,58.38
2023-02-26T11:10:19.600Z,55.85
2023-02-26T11:12:51.284Z,37.20
2023-02-26T11:15:24.548Z,18.10
2023-02-26T11:18:01.753Z,69.38
2023-02-26T11:20:40.674Z,19.27
2023-02-26T11:23:16.792Z,15.60
2023-02-26T11:25:48.286Z,13.15
2023-02-26T11:28:26.394Z,11.60
2023-02-26T11:30:57.698Z,14.82
2023-02-26T11:33:37.771Z,18.23
2023-02-26T11:36:14.339Z,18.08
2023-02-26T11:38:48.975Z,22.63
2023-02-26T11:41:20.861Z,27.70
2023-02-26T11:44:01.946Z,22.15
2023-02-26T11:46:33.218Z,14.32
2023-02-26T11:49:07.709Z,11.57
2023-02-26T11:51:38.643Z,28.15
2023-02-26T11:54:24.518Z,6.45
2023-02-26T11:56:55.325Z,27.20
2023-02-26T11:59:28.300Z,37.70
2023-02-26T12:01:59.049Z,54.38
2023-02-26T12:04:35.311Z,99.80
2023-02-26T12:07:06.009Z,58.60
2023-02-26T12:09:37.544Z,98.10
2023-02-26T12:12:19.656Z,61.13
2023-02-26T12:15:06.025Z,60.33
2023-02-26T12:18:15.830Z,88.38
2023-02-26T12:20:56.668Z,17.58
2023-02-26T12:23:43.991Z,33.67
2023-02-26T12:26:29.463Z,39.53
2023-02-26T12:29:17.751Z,40.05
2023-02-26T12:32:10.834Z,30.25
2023-02-26T12:35:11.514Z,28.70
2023-02-26T12:40:46.972Z,35.20
2023-02-26T12:43:23.385Z,20.15
2023-02-26T12:46:02.176Z,15.50
2023-02-26T12:49:05.856Z,15.10
2023-02-26T12:51:58.810Z,25.35
2023-02-26T12:54:50.178Z,21.63
2023-02-26T13:00:22.564Z,49.15
2023-02-26T13:03:29.062Z,43.22
2023-02-26T13:06:22.811Z,16.50
2023-02-26T13:09:04.487Z,10.38
2023-02-26T13:11:50.410Z,29.67
2023-02-26T13:14:36.557Z,25.92
2023-02-26T13:17:13.189Z,41.40
2023-02-26T13:19:48.610Z,32.17
2023-02-26T13:22:24.399Z,28.40
2023-02-26T13:25:00.580Z,36.88
2023-02-26T13:27:37.818Z,18.08
2023-02-26T13:30:32.428Z,13.73
2023-02-26T13:33:04.668Z,24.60
2023-02-26T13:35:40.410Z,25.23
2023-02-26T13:38:22.745Z,8.70
2023-02-26T13:41:12.903Z,12.13
2023-02-26T13:44:04.250Z,6.50
2023-02-26T13:49:22.021Z,21.90
2023-02-26T13:51:56.751Z,38.03
2023-02-26T13:54:44.836Z,31.05
2023-02-26T13:57:38.717Z,33.15
2023-02-26T14:00:29.784Z,46.83
2023-02-26T14:03:01.881Z,27.20
2023-02-26T14:05:52.969Z,36.33
2023-02-26T14:08:31.512Z,32.72
2023-02-26T14:11:06.896Z,28.70
2023-02-26T14:13:40.148Z,26.05
2023-02-26T14:16:25.462Z,15.00
2023-02-26T14:19:06.184Z,18.70
2023-02-26T14:24:26.608Z,24.15
2023-02-26T14:27:24.357Z,17.92
2023-02-26T14:30:04.599Z,19.27
2023-02-26T14:32:50.722Z,10.57
2023-02-26T14:35:25.384Z,13.68
2023-02-26T14:38:03.379Z,14.25
2023-02-26T14:40:40.400Z,22.35
2023-02-26T14:43:21.856Z,24.58
2023-02-26T14:45:54.051Z,16.33
2023-02-26T14:48:32.959Z,28.73
2023-02-26T14:51:18.183Z,31.25
2023-02-26T14:54:06.674Z,37.35
2023-02-26T14:56:51.883Z,20.05
2023-02-26T14:59:47.529Z,32.40
2023-02-26T15:02:29.781Z,31.92
2023-02-26T15:05:28.719Z,32.45
2023-02-26T15:08:36.312Z,39.13
2023-02-26T15:11:30.515Z,37.00
2023-02-26T15:14:33.511Z,43.28
2023-02-26T15:17:13.205Z,69.85
2023-02-26T15:20:07.983Z,111.30
2023-02-26T15:22:52.810Z,37.20
2023-02-26T15:25:32.537Z,62.40
2023-02-26T15:28:07.034Z,72.07
2023-02-26T15:30:38.713Z,85.82
2023-02-26T15:33:18.469Z,69.43
2023-02-26T15:35:52.208Z,31.65
2023-02-26T15:38:27.105Z,69.07
2023-02-26T15:41:08.067Z,75.07
2023-02-26T15:43:40.291Z,87.05
2023-02-26T15:46:13.564Z,100.72
2023-02-26T15:48:45.833Z,111.60
2023-02-26T15:51:20.680Z,89.97
2023-02-26T15:54:03.336Z,125.50
2023-02-26T15:56:38.061Z,84.30
2023-02-26T15:59:14.615Z,118.10
2023-02-26T16:01:45.712Z,127.40
2023-02-26T16:04:20.185Z,93.55
2023-02-26T16:06:53.119Z,140.77
2023-02-26T16:09:31.275Z,142.85
2023-02-26T16:12:08.053Z,122.07
2023-02-26T16:14:42.773Z,155.35
2023-02-26T16:17:18.174Z,213.13
2023-02-26T16:19:51.879Z,289.75
2023-02-26T16:22:27.880Z,211.13
2023-02-26T16:25:05.076Z,115.15
2023-02-26T16:27:37.033Z,96.25
2023-02-26T16:30:10.436Z,134.82
2023-02-26T16:32:42.555Z,903.85
2023-02-26T16:35:19.370Z,292.38
2023-02-26T16:37:52.736Z,277.67
2023-02-26T16:40:29.719Z,236.95
2023-02-26T16:43:06.286Z,224.88
2023-02-26T16:45:52.195Z,219.60
2023-02-26T16:48:27.824Z,221.50
2023-02-26T16:51:03.111Z,164.20
2023-02-26T16:53:40.482Z,201.82
2023-02-26T16:56:17.127Z,235.13
2023-02-26T16:58:50.543Z,321.50
2023-02-26T17:01:23.427Z,361.58
2023-02-26T17:04:05.576Z,359.92
2023-02-26T17:06:42.317Z,362.30
2023-02-26T17:09:37.619Z,371.88
2023-02-26T17:12:17.038Z,303.23
2023-02-26T17:14:50.853Z,383.63
2023-02-26T17:17:22.218Z,344.17
2023-02-26T17:19:53.334Z,330.30
2023-02-26T17:22:30.269Z,337.10
2023-02-26T17:25:01.128Z,375.70
2023-02-26T17:27:37.247Z,398.13
2023-02-26T17:30:10.331Z,378.15
2023-02-26T17:32:42.344Z,313.35
2023-02-26T17:35:16.276Z,289.73
2023-02-26T17:37:49.255Z,264.10
2023-02-26T17:40:24.478Z,255.20
2023-02-26T17:42:58.227Z,211.25
2023-02-26T17:45:29.725Z,266.38
2023-02-26T17:48:01.780Z,316.08
2023-02-26T17:50:39.036Z,354.48
2023-02-26T17:53:10.521Z,335.65
2023-02-26T17:55:42.452Z,310.60
2023-02-26T17:58:21.423Z,318.77
2023-02-26T18:00:53.397Z,341.50
2023-02-26T18:03:26.323Z,353.27
2023-02-26T18:05:59.265Z,334.35
2023-02-26T18:08:34.523Z,322.90
2023-02-26T18:11:06.983Z,309.70
2023-02-26T18:13:41.268Z,295.92
2023-02-26T18:16:20.044Z,304.17
2023-02-26T18:18:52.056Z,312.70
2023-02-26T18:21:23.246Z,358.85
2023-02-26T18:23:57.687Z,289.25
2023-02-26T18:26:28.875Z,319.80
2023-02-26T18:29:02.844Z,323.05
2023-02-26T18:31:36.566Z,317.58
2023-02-26T18:34:09.461Z,801.83
2023-02-26T18:36:41.361Z,358.83
2023-02-26T18:39:16.282Z,255.13
2023-02-26T18:41:47.168Z,402.30
2023-02-26T18:44:20.981Z,305.25
2023-02-26T18:46:51.899Z,179.60
2023-02-26T18:49:24.047Z,108.13
2023-02-26T18:51:54.861Z,133.95
2023-02-26T18:54:26.914Z,136.60
2023-02-26T18:56:57.746Z,115.10
2023-02-26T18:59:31.651Z,131.27
2023-02-26T19:02:02.907Z,86.30
2023-02-26T19:04:34.030Z,54.75
2023-02-26T19:09:36.080Z,32.92
2023-02-26T19:12:10.236Z,37.83
2023-02-26T19:14:47.723Z,46.75
2023-02-26T19:17:19.172Z,44.70
2023-02-26T19:19:50.564Z,60.78
2023-02-26T19:22:21.517Z,43.17
2023-02-26T19:24:53.489Z,34.97
2023-02-26T19:27:24.328Z,49.13
2023-02-26T19:29:58.128Z,57.78
2023-02-26T19:32:29.308Z,42.15
2023-02-26T19:35:00.581Z,51.08
2023-02-26T19:40:06.215Z,56.28
2023-02-26T19:42:37.979Z,100.70
2023-02-26T19:45:13.043Z,98.82
2023-02-26T19:47:44.484Z,78.07
2023-02-26T19:50:18.537Z,72.55
2023-02-26T19:52:50.223Z,95.97
2023-02-26T19:55:21.516Z,62.85
2023-02-26T19:57:52.530Z,52.03
2023-02-26T20:00:26.664Z,61.47
2023-02-26T20:02:57.558Z,78.05
2023-02-26T20:05:28.731Z,91.85
2023-02-26T20:10:31.886Z,76.70
2023-02-26T20:13:02.614Z,75.07
2023-02-26T20:15:36.428Z,73.80
2023-02-26T20:18:07.749Z,96.95
2023-02-26T20:20:39.000Z,94.80
2023-02-26T20:23:09.858Z,71.03
2023-02-26T20:25:41.029Z,223.82
2023-02-26T20:30:45.304Z,205.25
2023-02-26T20:33:16.818Z,149.65
2023-02-26T20:35:49.132Z,70.57
2023-02-26T20:38:21.906Z,92.05
2023-02-26T20:40:53.391Z,74.85
2023-02-26T20:43:25.183Z,76.53
2023-02-26T20:46:01.388Z,143.60
2023-02-26T20:48:33.184Z,165.93
2023-02-26T20:51:06.585Z,108.25
2023-02-26T20:53:38.546Z,100.95
2023-02-26T20:56:10.620Z,109.20
2023-02-26T20:58:42.434Z,100.05
2023-02-26T21:01:17.127Z,95.97
2023-02-26T21:03:47.924Z,78.32
2023-02-26T21:06:19.038Z,64.47
2023-02-26T21:11:20.708Z,68.53
2023-02-26T21:13:51.806Z,59.97
2023-02-26T21:16:26.050Z,40.83
2023-02-26T21:18:57.642Z,53.60
2023-02-26T21:21:29.417Z,30.33
2023-02-26T21:24:00.345Z,31.80
2023-02-26T21:26:31.990Z,23.08
2023-02-26T21:29:05.190Z,20.95
2023-02-26T21:31:39.062Z,36.28
2023-02-26T21:34:30.243Z,37.53
2023-02-26T21:37:01.374Z,35.85
2023-02-26T21:39:32.630Z,30.70
2023-02-26T21:42:05.235Z,55.95
2023-02-26T21:44:37.660Z,80.53
2023-02-26T21:47:12.235Z,54.72
2023-02-26T21:49:42.969Z,118.45
2023-02-26T21:52:15.277Z,178.65
2023-02-26T21:54:46.113Z,241.15
2023-02-26T21:57:17.826Z,185.00
2023-02-26T21:59:48.754Z,121.75
2023-02-26T22:02:23.091Z,118.13
2023-02-26T22:04:54.656Z,99.60
2023-02-26T22:07:25.938Z,84.38
2023-02-26T22:09:56.668Z,94.43
2023-02-26T22:12:28.607Z,117.60
2023-02-26T22:15:00.037Z,114.15
2023-02-26T22:17:33.777Z,82.38
2023-02-26T22:20:09.854Z,74.72
2023-02-26T22:22:41.493Z,75.30
2023-02-26T22:25:14.041Z,69.85
2023-02-26T22:27:45.353Z,64.80
2023-02-26T22:35:20.678Z,96.45
2023-02-26T22:37:52.294Z,72.20
2023-02-26T22:40:25.055Z,69.03
2023-02-26T22:42:56.233Z,60.63
2023-02-26T22:48:01.072Z,163.23
2023-02-26T22:50:31.875Z,159.60
2023-02-26T22:53:03.397Z,125.20
2023-02-26T22:55:34.096Z,31.52
2023-02-26T22:58:05.149Z,49.47
2023-02-26T23:03:09.298Z,157.90
2023-02-26T23:05:40.078Z,58.28
2023-02-26T23:08:11.194Z,39.67
2023-02-26T23:13:13.105Z,28.17
2023-02-26T23:15:44.049Z,60.53
2023-02-26T23:18:17.996Z,35.15
2023-02-26T23:20:50.722Z,68.45
2023-02-26T23:23:21.872Z,71.63
2023-02-26T23:28:25.485Z,59.42
2023-02-26T23:30:56.566Z,35.00
2023-02-26T23:33:30.383Z,33.90
2023-02-26T23:36:01.183Z,27.20
2023-02-26T23:38:32.255Z,27.08
2023-02-26T23:43:34.310Z,32.75
2023-02-26T23:46:05.159Z,15.65
2023-02-26T23:48:39.220Z,30.98
2023-02-26T23:51:10.006Z,28.45
2023-02-26T23:53:41.024Z,25.75
2023-02-26T23:56:11.939Z,36.83
2023-02-26T23:58:43.295Z,31.85
